createdAt,value
2022-12-19T00:01:35.738Z,23.15
2022-12-19T00:04:08.201Z,22.17
2022-12-19T00:06:37.067Z,21.25
2022-12-19T00:09:03.659Z,13.80
2022-12-19T00:11:30.313Z,17.13
2022-12-19T00:13:57.295Z,16.65
2022-12-19T00:16:27.120Z,17.52
2022-12-19T00:18:55.690Z,20.83
2022-12-19T00:21:24.863Z,23.30
2022-12-19T00:23:52.562Z,19.83
2022-12-19T00:26:24.505Z,19.92
2022-12-19T00:28:54.117Z,20.95
2022-12-19T00:31:22.536Z,22.02
2022-12-19T00:33:49.706Z,21.77
2022-12-19T00:36:22.819Z,19.55
2022-12-19T00:38:51.499Z,22.88
2022-12-19T00:41:21.208Z,22.73
2022-12-19T00:43:57.781Z,22.08
2022-12-19T00:46:25.228Z,22.88
2022-12-19T00:48:51.716Z,22.73
2022-12-19T00:51:23.993Z,25.58
2022-12-19T00:53:51.338Z,21.13
2022-12-19T00:56:21.519Z,22.75
2022-12-19T00:58:48.539Z,24.88
2022-12-19T01:01:21.423Z,22.17
2022-12-19T01:04:18.682Z,24.52
2022-12-19T01:06:34.835Z,17.45
2022-12-19T01:09:01.409Z,22.83
2022-12-19T01:11:46.547Z,23.95
2022-12-19T01:14:20.818Z,19.98
2022-12-19T01:16:49.635Z,16.67
2022-12-19T01:19:16.189Z,23.35
2022-12-19T01:21:42.765Z,24.90
2022-12-19T01:24:09.614Z,23.45
2022-12-19T01:26:36.101Z,22.92
2022-12-19T01:29:02.563Z,22.35
2022-12-19T01:31:29.014Z,22.55
2022-12-19T01:33:55.529Z,23.80
2022-12-19T01:36:21.950Z,25.67
2022-12-19T01:38:48.368Z,23.52
2022-12-19T01:41:14.856Z,22.80
2022-12-19T01:44:06.135Z,24.95
2022-12-19T01:46:42.177Z,23.88
2022-12-19T01:49:26.244Z,22.15
2022-12-19T01:51:55.243Z,23.23
2022-12-19T01:54:27.003Z,19.50
2022-12-19T01:56:57.329Z,23.52
2022-12-19T01:59:37.848Z,23.65
2022-12-19T02:02:12.997Z,21.95
2022-12-19T02:04:41.700Z,25.10
2022-12-19T02:07:15.574Z,23.30
2022-12-19T02:09:45.613Z,16.20
2022-12-19T02:12:12.955Z,23.27
2022-12-19T02:14:40.313Z,23.98
2022-12-19T02:17:21.274Z,24.10
2022-12-19T02:20:05.016Z,21.77
2022-12-19T02:22:43.346Z,22.92
2022-12-19T02:25:35.345Z,24.13
2022-12-19T02:28:26.294Z,21.05
2022-12-19T02:31:02.180Z,21.50
2022-12-19T02:33:40.772Z,22.98
2022-12-19T02:36:15.171Z,22.17
2022-12-19T02:38:46.130Z,22.38
2022-12-19T02:41:43.510Z,22.20
2022-12-19T02:44:21.852Z,22.67
2022-12-19T02:46:50.449Z,21.08
2022-12-19T02:49:22.415Z,22.73
2022-12-19T02:51:57.748Z,16.13
2022-12-19T02:54:25.120Z,21.45
2022-12-19T02:56:59.255Z,21.15
2022-12-19T02:59:35.635Z,20.13
2022-12-19T03:02:16.968Z,21.70
2022-12-19T03:05:05.349Z,21.80
2022-12-19T03:07:55.589Z,20.63
2022-12-19T03:10:42.986Z,22.15
2022-12-19T03:13:18.834Z,19.98
2022-12-19T03:15:46.100Z,22.90
2022-12-19T03:18:13.205Z,22.30
2022-12-19T03:20:44.946Z,22.23
2022-12-19T03:23:12.887Z,22.15
2022-12-19T03:25:43.183Z,21.95
2022-12-19T03:28:20.595Z,21.73
2022-12-19T03:30:47.752Z,19.88
2022-12-19T03:33:18.856Z,20.08
2022-12-19T03:35:47.255Z,18.60
2022-12-19T03:38:15.340Z,21.45
2022-12-19T03:40:45.913Z,23.40
2022-12-19T03:43:16.371Z,24.85
2022-12-19T03:46:04.960Z,20.52
2022-12-19T03:48:34.657Z,21.10
2022-12-19T03:51:05.722Z,21.23
2022-12-19T03:53:40.849Z,24.60
2022-12-19T03:56:19.813Z,22.13
2022-12-19T03:58:52.444Z,22.77
2022-12-19T04:01:19.433Z,25.70
2022-12-19T04:03:49.232Z,25.33
2022-12-19T04:06:17.147Z,24.63
2022-12-19T04:08:44.455Z,23.75
2022-12-19T04:11:16.475Z,26.08
2022-12-19T04:13:53.461Z,22.63
2022-12-19T04:16:32.829Z,25.00
2022-12-19T04:19:05.537Z,26.27
2022-12-19T04:21:39.386Z,25.88
2022-12-19T04:24:16.381Z,21.58
2022-12-19T04:26:47.279Z,26.05
2022-12-19T04:29:15.189Z,26.15
2022-12-19T04:31:42.886Z,25.77
2022-12-19T04:34:09.356Z,24.02
2022-12-19T04:36:36.026Z,21.30
2022-12-19T04:39:02.538Z,25.85
2022-12-19T04:41:29.051Z,19.17
2022-12-19T04:43:55.504Z,23.92
2022-12-19T04:46:22.054Z,22.15
2022-12-19T04:48:48.524Z,23.20
2022-12-19T04:51:16.150Z,24.20
2022-12-19T04:53:42.645Z,25.05
2022-12-19T04:56:09.707Z,20.95
2022-12-19T04:58:36.175Z,24.20
2022-12-19T05:01:08.039Z,18.50
2022-12-19T05:03:35.883Z,26.92
2022-12-19T05:06:08.071Z,25.42
2022-12-19T05:08:35.444Z,24.55
2022-12-19T05:11:02.860Z,24.70
2022-12-19T05:13:30.229Z,19.98
2022-12-19T05:16:00.962Z,24.80
2022-12-19T05:18:28.032Z,23.95
2022-12-19T05:20:54.625Z,25.40
2022-12-19T05:23:21.578Z,20.02
2022-12-19T05:25:48.437Z,26.77
2022-12-19T05:28:15.685Z,23.88
2022-12-19T05:30:43.962Z,20.98
2022-12-19T05:33:13.120Z,22.60
2022-12-19T05:35:40.059Z,24.95
2022-12-19T05:38:06.777Z,22.75
2022-12-19T05:40:33.359Z,22.48
2022-12-19T05:42:59.832Z,24.80
2022-12-19T05:45:26.312Z,23.52
2022-12-19T05:47:52.733Z,22.45
2022-12-19T05:50:19.232Z,27.13
2022-12-19T05:52:45.736Z,25.90
2022-12-19T05:55:12.692Z,26.90
2022-12-19T05:57:39.145Z,24.13
2022-12-19T06:00:06.313Z,26.90
2022-12-19T06:02:33.670Z,27.60
2022-12-19T06:05:00.310Z,25.33
2022-12-19T06:07:26.799Z,27.20
2022-12-19T06:09:53.250Z,23.63
2022-12-19T06:12:19.709Z,24.73
2022-12-19T06:14:46.163Z,24.00
2022-12-19T06:17:12.646Z,24.38
2022-12-19T06:19:39.144Z,23.08
2022-12-19T06:22:05.727Z,24.55
2022-12-19T06:24:32.708Z,25.77
2022-12-19T06:27:02.103Z,22.85
2022-12-19T06:29:28.596Z,20.90
2022-12-19T06:31:55.290Z,24.50
2022-12-19T06:34:55.167Z,24.75
2022-12-19T06:37:08.903Z,17.88
2022-12-19T06:39:35.436Z,24.25
2022-12-19T06:42:20.557Z,17.65
2022-12-19T06:44:46.984Z,21.45
2022-12-19T06:47:13.515Z,21.95
2022-12-19T06:49:40.065Z,23.90
2022-12-19T06:52:09.259Z,22.98
2022-12-19T06:54:35.870Z,21.65
2022-12-19T06:57:02.650Z,25.10
2022-12-19T06:59:29.105Z,26.55
2022-12-19T07:02:27.267Z,24.13
2022-12-19T07:05:03.882Z,23.38
2022-12-19T07:07:30.738Z,23.25
2022-12-19T07:09:57.230Z,22.77
2022-12-19T07:12:23.702Z,21.58
2022-12-19T07:14:53.379Z,21.17
2022-12-19T07:17:21.590Z,23.23
2022-12-19T07:19:49.531Z,21.00
2022-12-19T07:22:16.199Z,20.52
2022-12-19T07:24:42.642Z,20.08
2022-12-19T07:27:09.296Z,20.00
2022-12-19T07:29:35.748Z,21.65
2022-12-19T07:32:02.311Z,27.65
2022-12-19T07:34:30.040Z,22.33
2022-12-19T07:36:56.861Z,21.58
2022-12-19T07:39:23.453Z,22.00
2022-12-19T07:41:50.036Z,21.48
2022-12-19T07:44:16.546Z,20.38
2022-12-19T07:46:43.353Z,23.98
2022-12-19T07:49:09.833Z,23.92
2022-12-19T07:51:36.370Z,21.52
2022-12-19T07:54:03.366Z,20.75
2022-12-19T07:56:29.933Z,20.27
2022-12-19T07:58:56.689Z,22.50
2022-12-19T08:01:23.208Z,19.15
2022-12-19T08:03:49.807Z,23.20
2022-12-19T08:06:16.358Z,21.20
2022-12-19T08:08:42.852Z,21.58
2022-12-19T08:11:16.858Z,21.80
2022-12-19T08:13:46.653Z,21.52
2022-12-19T08:16:13.758Z,20.65
2022-12-19T08:18:40.595Z,22.65
2022-12-19T08:21:08.404Z,17.25
2022-12-19T08:23:35.050Z,18.25
2022-12-19T08:26:03.891Z,18.60
2022-12-19T08:28:31.968Z,19.30
2022-12-19T08:31:05.321Z,19.55
2022-12-19T08:33:31.881Z,18.25
2022-12-19T08:35:59.237Z,19.45
2022-12-19T08:38:25.696Z,20.30
2022-12-19T08:40:54.357Z,20.92
2022-12-19T08:43:21.440Z,22.50
2022-12-19T08:45:50.005Z,21.10
2022-12-19T08:48:17.366Z,18.65
2022-12-19T08:50:55.223Z,18.70
2022-12-19T08:53:26.296Z,75.47
2022-12-19T08:56:01.794Z,22.80
2022-12-19T08:58:29.844Z,20.33
2022-12-19T09:01:05.940Z,20.67
2022-12-19T09:03:42.726Z,21.02
2022-12-19T09:06:20.125Z,21.38
2022-12-19T09:08:46.911Z,18.02
2022-12-19T09:11:18.383Z,21.08
2022-12-19T09:13:46.553Z,20.75
2022-12-19T09:16:14.224Z,15.68
2022-12-19T09:18:46.605Z,13.68
2022-12-19T09:21:15.411Z,17.13
2022-12-19T09:23:43.263Z,16.65
2022-12-19T09:26:13.372Z,15.50
2022-12-19T09:28:41.453Z,21.33
2022-12-19T09:31:11.943Z,19.00
2022-12-19T09:33:43.408Z,20.67
2022-12-19T09:36:19.690Z,22.40
2022-12-19T09:38:47.066Z,19.83
2022-12-19T09:41:13.523Z,20.50
2022-12-19T09:43:58.317Z,82.28
2022-12-19T09:46:35.815Z,21.92
2022-12-19T09:49:03.148Z,20.67
2022-12-19T09:51:36.678Z,22.00
2022-12-19T09:54:15.965Z,19.42
2022-12-19T09:56:45.510Z,19.05
2022-12-19T09:59:39.943Z,21.10
2022-12-19T10:02:23.082Z,21.92
2022-12-19T10:04:56.661Z,21.65
2022-12-19T10:08:05.028Z,22.65
2022-12-19T10:12:39.582Z,21.55
2022-12-19T10:13:51.474Z,21.13
2022-12-19T10:16:56.312Z,18.20
2022-12-19T10:19:46.328Z,18.40
2022-12-19T10:22:28.133Z,20.92
2022-12-19T10:25:12.069Z,21.73
2022-12-19T10:27:59.889Z,22.45
2022-12-19T10:30:31.486Z,24.80
2022-12-19T10:33:38.735Z,20.73
2022-12-19T10:36:10.796Z,18.25
2022-12-19T10:39:03.979Z,19.15
2022-12-19T10:41:32.353Z,17.00
2022-12-19T10:44:10.130Z,20.73
2022-12-19T10:46:49.366Z,18.52
2022-12-19T10:49:27.062Z,18.77
2022-12-19T10:52:02.533Z,18.80
2022-12-19T10:54:38.014Z,20.23
2022-12-19T10:57:26.963Z,15.95
2022-12-19T11:00:09.696Z,17.60
2022-12-19T11:02:39.041Z,19.58
2022-12-19T11:05:39.821Z,17.45
2022-12-19T11:08:06.238Z,19.15
2022-12-19T11:12:33.593Z,19.45
2022-12-19T11:19:34.858Z,19.05
2022-12-19T11:21:37.127Z,15.27
2022-12-19T11:29:31.090Z,22.35
2022-12-19T11:29:54.186Z,19.42
2022-12-19T11:30:07.050Z,19.50
2022-12-19T11:30:46.773Z,19.30
2022-12-19T11:34:21.225Z,18.55
2022-12-19T11:37:11.829Z,17.70
2022-12-19T11:39:50.142Z,18.55
2022-12-19T11:42:37.750Z,17.63
2022-12-19T11:45:41.241Z,18.10
2022-12-19T11:48:19.925Z,17.10
2022-12-19T11:51:14.293Z,18.38
2022-12-19T11:54:07.615Z,19.75
2022-12-19T11:56:34.868Z,18.67
2022-12-19T11:59:11.666Z,19.40
2022-12-19T12:02:07.102Z,19.25
2022-12-19T12:05:11.249Z,18.10
2022-12-19T12:08:42.799Z,18.92
2022-12-19T12:13:32.040Z,17.92
2022-12-19T12:21:38.693Z,16.75
2022-12-19T12:27:56.580Z,16.67
2022-12-19T12:31:07.269Z,17.08
2022-12-19T12:31:42.240Z,17.33
2022-12-19T12:31:58.267Z,16.65
2022-12-19T12:32:04.671Z,16.45
2022-12-19T12:35:50.036Z,16.08
2022-12-19T12:38:27.543Z,18.10
2022-12-19T12:41:48.116Z,17.30
2022-12-19T12:44:15.287Z,17.75
2022-12-19T12:46:52.035Z,18.23
2022-12-19T12:49:32.825Z,17.15
2022-12-19T12:52:01.609Z,18.38
2022-12-19T12:54:34.236Z,17.40
2022-12-19T12:57:01.714Z,17.88
2022-12-19T12:59:30.255Z,17.30
2022-12-19T13:02:06.580Z,17.50
2022-12-19T13:04:42.092Z,16.85
2022-12-19T13:07:25.073Z,16.92
2022-12-19T13:10:13.335Z,16.27
2022-12-19T13:13:01.608Z,15.80
2022-12-19T13:15:28.085Z,16.02
2022-12-19T13:17:54.480Z,15.23
2022-12-19T13:20:23.888Z,17.00
2022-12-19T13:23:00.262Z,17.33
2022-12-19T13:25:26.758Z,15.98
2022-12-19T13:28:22.275Z,18.50
2022-12-19T13:31:19.337Z,15.18
2022-12-19T13:33:56.230Z,16.05
2022-12-19T13:39:58.423Z,18.00
2022-12-19T13:40:11.005Z,14.38
2022-12-19T13:45:40.679Z,16.52
2022-12-19T13:48:15.421Z,14.18
2022-12-19T13:50:43.097Z,16.60
2022-12-19T13:53:26.168Z,17.10
2022-12-19T13:56:00.071Z,17.95
2022-12-19T13:58:30.667Z,16.90
2022-12-19T14:01:02.852Z,16.10
2022-12-19T14:03:40.766Z,16.33
2022-12-19T14:06:21.322Z,17.05
2022-12-19T14:09:37.452Z,16.60
2022-12-19T14:13:41.380Z,15.27
2022-12-19T14:14:46.823Z,13.27
2022-12-19T14:17:14.577Z,11.27
2022-12-19T14:19:47.294Z,10.32
2022-12-19T14:22:26.058Z,15.27
2022-12-19T14:25:45.114Z,12.63
2022-12-19T14:28:17.606Z,14.00
2022-12-19T14:30:54.612Z,13.75
2022-12-19T14:33:43.818Z,13.38
2022-12-19T14:36:25.634Z,11.95
2022-12-19T14:39:25.330Z,11.63
2022-12-19T14:42:03.893Z,12.70
2022-12-19T14:53:51.781Z,12.15
2022-12-19T14:54:23.411Z,10.68
2022-12-19T14:54:55.167Z,10.18
2022-12-19T14:59:02.509Z,10.98
2022-12-19T15:01:33.925Z,12.32
2022-12-19T15:04:47.329Z,9.95
2022-12-19T15:07:07.121Z,10.48
2022-12-19T15:11:07.709Z,9.63
2022-12-19T15:14:52.491Z,9.50
2022-12-19T15:16:24.826Z,10.38
2022-12-19T15:18:55.233Z,10.68
2022-12-19T15:21:21.761Z,9.98
2022-12-19T15:23:48.324Z,8.85
2022-12-19T15:26:17.446Z,7.78
2022-12-19T15:28:52.061Z,7.75
2022-12-19T15:31:26.254Z,9.13
2022-12-19T15:34:23.745Z,10.63
2022-12-19T15:36:39.395Z,12.77
2022-12-19T15:39:05.890Z,9.68
2022-12-19T15:41:32.547Z,9.10
2022-12-19T15:44:04.008Z,10.02
2022-12-19T15:46:32.310Z,9.27
2022-12-19T15:48:58.884Z,7.57
2022-12-19T15:51:26.478Z,9.10
2022-12-19T15:53:53.542Z,11.05
2022-12-19T15:56:28.775Z,9.18
2022-12-19T15:58:57.336Z,8.35
2022-12-19T16:01:24.562Z,7.13
2022-12-19T16:03:51.380Z,9.32
2022-12-19T16:06:18.562Z,7.03
2022-12-19T16:08:45.126Z,8.15
2022-12-19T16:11:21.447Z,8.55
2022-12-19T16:13:55.618Z,6.18
2022-12-19T16:16:22.900Z,4.75
2022-12-19T16:18:49.516Z,8.07
2022-12-19T16:21:27.370Z,7.35
2022-12-19T16:23:57.957Z,8.68
2022-12-19T16:26:34.588Z,8.55
2022-12-19T16:29:02.112Z,9.60
2022-12-19T16:31:28.916Z,7.57
2022-12-19T16:33:55.582Z,8.68
2022-12-19T16:36:22.324Z,9.05
2022-12-19T16:38:48.895Z,8.93
2022-12-19T16:41:19.383Z,8.82
2022-12-19T16:43:46.036Z,9.35
2022-12-19T16:46:19.089Z,8.60
2022-12-19T16:48:45.832Z,9.23
2022-12-19T16:51:21.144Z,9.18
2022-12-19T16:53:50.593Z,9.02
2022-12-19T16:56:55.538Z,8.88
2022-12-19T16:59:34.131Z,8.68
2022-12-19T17:02:00.914Z,8.05
2022-12-19T17:04:29.068Z,7.35
2022-12-19T17:06:56.364Z,8.05
2022-12-19T17:09:24.597Z,8.40
2022-12-19T17:11:55.798Z,7.88
2022-12-19T17:14:27.102Z,9.75
2022-12-19T17:16:55.379Z,9.45
2022-12-19T17:19:33.744Z,7.63
2022-12-19T17:22:00.403Z,7.53
2022-12-19T17:24:27.219Z,7.57
2022-12-19T17:26:53.712Z,7.60
2022-12-19T17:29:20.199Z,7.25
2022-12-19T17:31:46.745Z,6.97
2022-12-19T17:34:21.868Z,6.20
2022-12-19T17:36:48.347Z,7.03
2022-12-19T17:39:20.627Z,5.68
2022-12-19T17:41:48.438Z,5.80
2022-12-19T17:44:15.341Z,9.98
2022-12-19T17:46:42.421Z,11.07
2022-12-19T17:49:18.228Z,9.45
2022-12-19T17:51:50.196Z,7.82
2022-12-19T17:54:16.740Z,6.28
2022-12-19T17:56:43.188Z,5.30
2022-12-19T17:59:09.732Z,8.80
2022-12-19T18:01:38.419Z,6.32
2022-12-19T18:04:05.059Z,6.93
2022-12-19T18:06:31.591Z,7.03
2022-12-19T18:08:58.141Z,7.10
2022-12-19T18:11:26.006Z,17.35
2022-12-19T18:13:53.490Z,9.75
2022-12-19T18:16:24.877Z,7.40
2022-12-19T18:18:51.635Z,7.22
2022-12-19T18:21:20.591Z,6.95
2022-12-19T18:23:49.009Z,7.82
2022-12-19T18:26:15.546Z,6.97
2022-12-19T18:28:42.426Z,9.20
2022-12-19T18:31:20.773Z,9.73
2022-12-19T18:33:49.949Z,7.47
2022-12-19T18:36:25.504Z,12.55
2022-12-19T18:38:52.959Z,7.32
2022-12-19T18:41:20.481Z,9.55
2022-12-19T18:43:47.126Z,9.13
2022-12-19T18:46:16.345Z,10.20
2022-12-19T18:48:44.504Z,10.18
2022-12-19T18:51:16.566Z,10.13
2022-12-19T18:53:44.347Z,10.15
2022-12-19T18:56:11.309Z,8.25
2022-12-19T18:58:37.999Z,9.60
2022-12-19T19:01:07.064Z,8.38
2022-12-19T19:03:39.302Z,9.68
2022-12-19T19:06:14.156Z,9.23
2022-12-19T19:08:40.692Z,9.90
2022-12-19T19:11:07.431Z,7.75
2022-12-19T19:13:34.027Z,9.07
2022-12-19T19:16:03.774Z,10.90
2022-12-19T19:18:35.259Z,9.10
2022-12-19T19:21:02.375Z,8.45
2022-12-19T19:23:39.127Z,6.45
2022-12-19T19:26:06.221Z,8.82
2022-12-19T19:28:32.786Z,9.68
2022-12-19T19:31:00.593Z,8.80
2022-12-19T19:33:33.785Z,6.00
2022-12-19T19:36:12.142Z,6.88
2022-12-19T19:38:42.562Z,7.45
2022-12-19T19:41:09.150Z,6.90
2022-12-19T19:43:35.804Z,6.47
2022-12-19T19:46:02.969Z,9.50
2022-12-19T19:48:30.374Z,9.40
2022-12-19T19:50:57.467Z,10.15
2022-12-19T19:53:24.011Z,9.10
2022-12-19T19:55:58.089Z,7.90
2022-12-19T19:58:24.640Z,3.97
2022-12-19T20:00:51.274Z,4.72
2022-12-19T20:03:22.514Z,3.60
2022-12-19T20:05:50.138Z,3.10
2022-12-19T20:08:16.722Z,2.33
2022-12-19T20:10:43.146Z,2.40
2022-12-19T20:13:11.127Z,2.50
2022-12-19T20:15:39.163Z,2.28
2022-12-19T20:18:08.560Z,2.20
2022-12-19T20:20:35.159Z,1.90
2022-12-19T20:23:02.507Z,2.20
2022-12-19T20:25:28.941Z,2.22
2022-12-19T20:27:55.484Z,2.33
2022-12-19T20:30:21.972Z,2.28
2022-12-19T20:32:48.458Z,2.35
2022-12-19T20:35:16.098Z,2.50
2022-12-19T20:37:42.962Z,2.40
2022-12-19T20:40:10.093Z,2.50
2022-12-19T20:42:36.579Z,2.72
2022-12-19T20:45:03.653Z,2.70
2022-12-19T20:47:30.426Z,4.38
2022-12-19T20:49:56.905Z,2.38
2022-12-19T20:52:23.512Z,2.10
2022-12-19T20:54:50.441Z,4.35
2022-12-19T20:57:17.083Z,2.03
2022-12-19T20:59:43.811Z,2.30
2022-12-19T21:02:11.451Z,2.25
2022-12-19T21:04:38.184Z,2.03
2022-12-19T21:07:04.805Z,2.00
2022-12-19T21:09:31.386Z,2.30
2022-12-19T21:11:57.908Z,2.10
2022-12-19T21:14:24.446Z,2.10
2022-12-19T21:16:51.049Z,1.88
2022-12-19T21:19:17.576Z,1.90
2022-12-19T21:21:44.614Z,2.00
2022-12-19T21:24:11.189Z,1.95
2022-12-19T21:26:37.814Z,1.83
2022-12-19T21:29:05.032Z,1.80
2022-12-19T21:31:31.709Z,1.63
2022-12-19T21:34:01.472Z,1.75
2022-12-19T21:36:29.969Z,1.88
2022-12-19T21:38:59.313Z,1.98
2022-12-19T21:41:26.409Z,1.88
2022-12-19T21:43:54.993Z,1.70
2022-12-19T21:46:27.019Z,2.13
2022-12-19T21:48:55.287Z,1.85
2022-12-19T21:51:25.225Z,1.98
2022-12-19T21:53:56.583Z,2.38
2022-12-19T21:56:31.989Z,1.95
2022-12-19T21:59:03.866Z,2.17
2022-12-19T22:01:31.230Z,1.92
2022-12-19T22:04:00.670Z,2.22
2022-12-19T22:06:31.773Z,2.05
2022-12-19T22:08:59.326Z,1.83
2022-12-19T22:11:26.358Z,2.03
2022-12-19T22:13:53.402Z,2.20
2022-12-19T22:16:20.264Z,2.10
2022-12-19T22:18:46.812Z,2.15
2022-12-19T22:21:15.041Z,1.70
2022-12-19T22:23:42.295Z,1.98
2022-12-19T22:26:10.944Z,2.25
2022-12-19T22:28:39.613Z,1.85
2022-12-19T22:31:26.198Z,2.00
2022-12-19T22:33:56.300Z,2.03
2022-12-19T22:36:28.425Z,2.00
2022-12-19T22:38:57.004Z,1.77
2022-12-19T22:41:24.347Z,1.77
2022-12-19T22:43:51.746Z,1.50
2022-12-19T22:46:21.074Z,1.92
2022-12-19T22:48:50.141Z,1.63
2022-12-19T22:51:19.854Z,1.63
2022-12-19T22:53:47.265Z,1.60
2022-12-19T22:56:16.696Z,1.52
2022-12-19T22:58:45.083Z,1.40
2022-12-19T23:01:26.571Z,1.35
2022-12-19T23:03:55.682Z,1.42
2022-12-19T23:06:24.055Z,1.40
2022-12-19T23:08:50.531Z,1.30
2022-12-19T23:11:23.439Z,1.50
2022-12-19T23:13:50.341Z,1.55
2022-12-19T23:16:17.569Z,1.50
2022-12-19T23:18:44.663Z,1.80
2022-12-19T23:21:20.636Z,1.50
2022-12-19T23:23:49.502Z,1.70
2022-12-19T23:26:18.331Z,1.40
2022-12-19T23:28:49.616Z,1.45
2022-12-19T23:31:16.230Z,1.92
2022-12-19T23:33:42.762Z,1.33
2022-12-19T23:36:10.637Z,1.30
2022-12-19T23:38:37.175Z,1.30
2022-12-19T23:41:06.913Z,1.33
2022-12-19T23:43:35.495Z,1.52
2022-12-19T23:46:07.001Z,1.30
2022-12-19T23:48:33.904Z,1.60
2022-12-19T23:51:02.574Z,1.30
2022-12-19T23:53:31.020Z,1.40
2022-12-19T23:55:57.792Z,1.50
2022-12-19T23:58:25.006Z,1.48
